Aérodrome :
LOGIN :

S'inscrire | Disclaimer

   EN    FR    IT 

 










Légende :    VFR   VFR Marginal   IFR   IFR Intensif   IFR Très Intensif
Visi : 
Plafond : 
>= 8 km
>= 3000ft
5 à 8 km
1000 à 3000 ft
1500m à 5 km
500 à 1000 ft
800 à 1500m
200 à 500 ft
< 800m
< 200 ft
Symboles :   Orages  Brouillard  Fortes neiges  Fortes précipitations  Vent > 20 kt
SIGMETs :   Divers  Orages  Givrage  Turbulence  Onde Orograph.  Cendres Volcan.







- Altitude de l'aérodrome : 386 ft
- Code IATA : QOE


ETNN - Nörvenich Airforce Base

DERNIER METAR :
  • 171620Z 24007KT 9999 FEW015 BKN110 06/03 Q1022 BLU

METARs EXPIRÉS :
  • 171600Z 24006KT 9999 FEW015 BKN110 07/03 Q1022 BLU FCST CANCEL
  • 171520Z 24008KT 9999 FEW015 SCT040 BKN100 08/03 Q1021 BLU BLU
  • 171420Z 26011KT 9999 FEW015 BKN040 08/04 Q1020 BLU BLU

TAF AMD TAF ETNN
Valide du 17 à 16h jusqu'au 18 à 00h UTC


171605Z 1716/1724 23008KT 9999 NSW FEW015 BKN040
PROB30 1716/1721 25012KT 5000 -RA FEW012 BKN015
TEMPO 1721/1724 22005KT 8000 NSW BKN010 CANCEL 1630Z BY ETGL
Pas de NOTAMs connus pour ce terrain.



MET'MAP, la Météo Aéronautique d'un coup d'oeil ! - Copyright ORBIFLY Décembre 2007 - Disclaimer

ORBIFLY MET'MAP TEAM :

Programmation & Développement : Alexandra Zaïnal
Conception & Développement : Baudouin d'Aumeries
Co-Programmation & Développement : Marc-Olivier Méhu
Soutien technique & logistique : Manuel Goepfert

Contact : metmap@orbifly.com




SOURCES & CREDITS :

   NOAA